aviador You're here:

KCGS Decoded Metar

COLLEGE PARK in MD, USA
Report Time2018-01-18 21:17:00
UTC Time2018-01-18 21:33:46
Flight Rules vfr VFR
Wind310° at 05 Gusting to 15 kt
W.Decomp.*RWY 33: 4.9 kt HW 0.8 kt LCW
W.Rank310° ranks 2
Current wind is below 310° avg. (7.4)
Visibility9999 m
Phenomena:N/A
Clouds:N/A
Expected CloudBase > 9,600 ft AGL from Temp-Dew spread
CeilingNone
Temp07°C (ISA -8)
Dew Point-17°C (16% RH)
AAT1.7°C
QNH1017 hPa
Density Alt-1,010 ft
Elevation49 ft
Report Wrong Elevation
Raw Report
METAR KCGS 182117Z AUTO 31005G15KT 10SM CLR 07/M17 A3002 RMK AO1 T00651168=

Extra information for KCGS:More info

Metar Taf Metar & Taf Last 4 Metars F.Rules Stats Wind Profile Meteogram Temp Stats Airport Information Weather charts Add Link Nearby VenuesMetar ALERT Operation Metar Decoded Social comments

AIRNAV info for KCGS